YOO weather

Toronto/Oshawa Executive Airport
Oshawa, Ontario, Canada

Public forecast

Using degrees Celsius for public forecast. Weather courtesy of forecast.io.

METAR (pilot weather report)

Retrieved 2019/03/20 23:00 UTC (25 minutes ago):

CYOO 202300Z AUTO 12006KT 9SM CLR 05/M02 A3009 RMK SLP197

TAF (pilot weather forecast)

Retrieved 2019/03/20 20:00 UTC (3 hours ago):

TAF CYOO 201939Z 2020/2108 18010G20KT P6SM FEW040 SCT120 BECMG 2022/2024 19005KT FM210000 19005KT P6SM BKN100 FM210200 08007KT P6SM -RASN OVC060 FM210500 11007KT 5SM -RASN BR BKN020 OVC050 RMK FCST BASED ON AUTO OBS. NXT FCST BY 210200Z